Time;durP1;ratioP1;P1;durP2;ratioP2;P2;SDS_P1;SDS_P2;PMS_P1;PMS_P2;Temp;Humidity;BMP_temperature;BMP_pressure;BME280_temperature;BME280_humidity;BME280_pressure;Samples;Min_cycle;Max_cycle;Signal;HPM_P1;HPM_P2
2023/05/19 00:02:08;;;;;;;2.42;1.30;;;;;;;21.37;57.19;101268.50;5075953;28;20408;-50
2023/05/19 00:04:36;;;;;;;3.25;1.90;;;;;;;21.37;57.33;101273.91;5075733;28;20411;-51
2023/05/19 00:07:07;;;;;;;3.15;1.40;;;;;;;21.36;57.25;101274.91;5075853;28;20480;-53
2023/05/19 00:09:34;;;;;;;2.58;1.45;;;;;;;21.37;57.17;101270.38;5075671;28;20055;-51
2023/05/19 00:12:02;;;;;;;2.97;1.83;;;;;;;21.37;57.31;101271.22;5075596;28;20048;-52
2023/05/19 00:14:30;;;;;;;4.28;1.80;;;;;;;21.37;57.31;101273.91;5075810;28;20049;-51
2023/05/19 00:16:57;;;;;;;2.35;1.55;;;;;;;;;;5075537;28;20044;-51
2023/05/19 00:19:24;;;;;;;3.17;1.58;;;;;;;21.37;57.34;101275.75;5075587;28;20047;-51
2023/05/19 00:21:52;;;;;;;3.00;1.70;;;;;;;21.36;57.29;101265.97;5075015;28;20047;-50
2023/05/19 00:24:19;;;;;;;3.88;1.60;;;;;;;21.36;57.32;101271.34;5073980;28;20169;-53
2023/05/19 00:26:46;;;;;;;3.72;1.50;;;;;;;21.36;57.22;101274.06;5073801;28;20358;-52
2023/05/19 00:29:17;;;;;;;3.13;1.80;;;;;;;;;;5075197;28;20519;-53
2023/05/19 00:31:45;;;;;;;2.97;1.67;;;;;;;21.36;57.35;101271.34;5074029;28;20071;-59
2023/05/19 00:34:12;;;;;;;2.90;1.80;;;;;;;21.36;57.39;101268.66;5074857;28;20051;-59
2023/05/19 00:36:40;;;;;;;4.57;1.60;;;;;;;21.36;57.41;101272.22;5074941;28;20119;-59
2023/05/19 00:39:07;;;;;;;2.78;1.52;;;;;;;21.36;57.36;101265.97;5074659;28;20036;-59
2023/05/19 00:41:35;;;;;;;2.63;1.55;;;;;;;21.35;57.49;101261.53;5074101;28;20397;-59
2023/05/19 00:44:02;;;;;;;3.67;1.77;;;;;;;;;;5075174;28;20040;-59
2023/05/19 00:46:29;;;;;;;3.13;1.70;;;;;;;21.36;57.41;101264.13;5074875;28;20373;-59
2023/05/19 00:48:57;;;;;;;2.55;1.30;;;;;;;;;;5073814;28;20064;-59
2023/05/19 00:51:28;;;;;;;3.72;1.65;;;;;;;;;;5073990;28;20052;-59
2023/05/19 00:53:56;;;;;;;4.43;1.77;;;;;;;21.35;57.42;101258.84;5072729;28;20409;-59
2023/05/19 00:56:25;;;;;;;2.45;1.45;;;;;;;21.33;57.52;101242.84;5073308;28;20048;-59
2023/05/19 00:58:53;;;;;;;2.58;1.63;;;;;;;21.33;57.30;101250.06;5074769;28;20049;-59
2023/05/19 01:01:22;;;;;;;2.95;1.52;;;;;;;21.33;57.56;101245.53;5073226;28;20055;-50
2023/05/19 01:03:50;;;;;;;2.70;1.67;;;;;;;21.34;57.44;101254.47;5073203;28;20052;-52
2023/05/19 01:06:20;;;;;;;3.22;1.90;;;;;;;21.33;57.46;101250.91;5074356;28;20048;-53
2023/05/19 01:08:50;;;;;;;4.55;2.05;;;;;;;21.34;57.56;101249.06;5074375;28;20048;-50
2023/05/19 01:11:17;;;;;;;3.10;1.50;;;;;;;21.33;57.52;101250.91;5074806;28;20048;-59
2023/05/19 01:13:45;;;;;;;2.33;1.58;;;;;;;21.33;57.49;101248.22;5074488;28;20412;-59
2023/05/19 01:16:42;;;;;;;2.88;1.90;;;;;;;21.33;57.69;101245.53;5074394;28;20056;-59
2023/05/19 01:19:32;;;;;;;2.88;1.70;;;;;;;21.32;57.62;101243.84;5073487;28;20053;-59
2023/05/19 01:22:27;;;;;;;3.35;1.45;;;;;;;21.33;57.50;101240.16;5073597;28;20404;-59
2023/05/19 01:25:15;;;;;;;4.72;1.50;;;;;;;21.33;57.61;101244.69;5073256;28;20049;-59
2023/05/19 01:28:13;;;;;;;3.58;1.70;;;;;;;21.32;57.61;101241.16;5074178;28;20045;-59
2023/05/19 01:30:42;;;;;;;2.38;1.20;;;;;;;21.32;57.68;101241.16;5073184;28;20052;-50
2023/05/19 01:33:15;;;;;;;2.95;1.27;;;;;;;21.32;57.66;101245.66;5072866;28;20546;-52
2023/05/19 01:35:44;;;;;;;2.50;1.48;;;;;;;21.32;57.62;101243.84;5074131;28;20050;-52
2023/05/19 01:38:15;;;;;;;3.22;1.77;;;;;;;21.33;57.76;101239.31;5072996;28;20060;-51
2023/05/19 01:40:43;;;;;;;2.63;1.50;;;;;;;21.32;57.75;101248.34;5074127;28;20040;-59
2023/05/19 01:43:20;;;;;;;3.55;2.00;;;;;;;21.32;57.69;101242.97;5072584;28;20056;-59
2023/05/19 01:45:48;;;;;;;2.65;1.75;;;;;;;21.32;57.81;101241.16;5072467;28;20389;-59
2023/05/19 01:48:17;;;;;;;2.30;1.30;;;;;;;21.32;57.82;101238.44;5073784;28;20048;-59
2023/05/19 01:50:45;;;;;;;2.88;1.58;;;;;;;21.33;57.73;101239.31;5073862;28;20040;-59
2023/05/19 01:53:12;;;;;;;2.63;1.48;;;;;;;21.32;57.84;101232.19;5072900;28;20041;-59
2023/05/19 01:55:46;;;;;;;2.22;1.40;;;;;;;21.33;57.77;101245.53;5072718;28;20048;-59
2023/05/19 01:58:17;;;;;;;2.53;1.42;;;;;;;21.33;57.78;101240.16;5072639;28;20056;-59
2023/05/19 02:01:00;;;;;;;2.95;1.70;;;;;;;21.33;57.91;101242.84;5072603;28;20055;-59
2023/05/19 02:03:43;;;;;;;2.05;1.27;;;;;;;21.33;57.84;101244.69;5073848;28;20044;-59
2023/05/19 02:06:46;;;;;;;3.03;1.40;;;;;;;21.33;58.01;101247.38;5072516;28;20059;-59
2023/05/19 02:09:39;;;;;;;3.10;1.67;;;;;;;21.32;57.94;101240.25;5073464;28;20048;-59
2023/05/19 02:12:13;;;;;;;;;;;;;;;21.31;57.95;101250.19;5073942;28;20409;-51
2023/05/19 02:15:02;;;;;;;3.63;1.60;;;;;;;21.32;57.87;101242.97;5073460;28;19927;-54
2023/05/19 02:17:40;;;;;;;3.75;1.75;;;;;;;21.32;57.86;101242.97;5072194;28;20057;-53
2023/05/19 02:20:09;;;;;;;4.00;1.70;;;;;;;21.31;57.92;101243.91;5072103;28;20059;-59
2023/05/19 02:22:36;;;;;;;3.42;1.52;;;;;;;21.31;57.85;101246.63;5073778;28;20052;-59
2023/05/19 02:25:04;;;;;;;3.10;1.60;;;;;;;21.32;57.97;101251.03;5072615;28;20052;-59
2023/05/19 02:27:33;;;;;;;3.58;1.55;;;;;;;21.30;57.83;101253.84;5072328;28;20068;-59
2023/05/19 02:30:05;;;;;;;2.28;1.58;;;;;;;21.31;57.82;101258.25;5073003;28;20403;-53
2023/05/19 02:32:33;;;;;;;3.20;1.70;;;;;;;21.30;57.90;101243.06;5073207;28;20051;-54
2023/05/19 02:35:01;;;;;;;2.72;1.80;;;;;;;21.30;57.80;101250.31;5073273;28;20044;-51
2023/05/19 02:37:29;;;;;;;2.15;1.40;;;;;;;21.30;57.91;101253.84;5071871;28;20049;-54
2023/05/19 02:39:57;;;;;;;3.58;1.60;;;;;;;21.30;58.07;101248.47;5073258;28;20044;-59
2023/05/19 02:42:24;;;;;;;3.05;1.60;;;;;;;21.31;57.98;101254.69;5073174;28;20040;-59
2023/05/19 02:44:54;;;;;;;3.15;1.48;;;;;;;21.30;57.82;101253.00;5071927;28;20048;-59
2023/05/19 02:47:22;;;;;;;2.65;1.67;;;;;;;21.30;57.95;101250.31;5073032;28;20059;-59
2023/05/19 02:49:49;;;;;;;2.60;1.40;;;;;;;21.30;58.01;101256.53;5072742;28;20488;-52
2023/05/19 02:52:16;;;;;;;3.20;1.92;;;;;;;21.31;57.91;101254.69;5071833;28;20049;-51
2023/05/19 02:54:46;;;;;;;3.33;1.58;;;;;;;21.31;57.98;101257.38;5071531;28;20051;-51
2023/05/19 02:57:13;;;;;;;3.42;1.92;;;;;;;21.30;57.96;101253.84;5073082;28;20052;-50
2023/05/19 02:59:41;;;;;;;4.05;1.60;;;;;;;21.29;57.67;101249.44;5072043;28;20057;-58
2023/05/19 03:02:09;;;;;;;3.40;1.70;;;;;;;21.31;57.97;101249.31;5071754;28;20508;-50
2023/05/19 03:04:40;;;;;;;2.72;1.45;;;;;;;21.29;58.04;101245.91;5071873;28;20052;-51
2023/05/19 03:07:09;;;;;;;2.22;1.40;;;;;;;21.30;57.74;101244.91;5072893;28;20404;-50
2023/05/19 03:09:37;;;;;;;2.42;1.38;;;;;;;21.30;57.99;101244.91;5072912;28;20067;-59
2023/05/19 03:12:06;;;;;;;2.95;1.88;;;;;;;21.29;58.12;101245.91;5073173;28;20055;-59
2023/05/19 03:14:36;;;;;;;2.55;1.52;;;;;;;21.30;58.01;101250.31;5072694;28;20052;-59
2023/05/19 03:17:06;;;;;;;4.00;1.75;;;;;;;21.28;58.04;101245.06;5074680;28;20056;-59
2023/05/19 03:19:34;;;;;;;3.65;1.80;;;;;;;21.30;58.06;101250.31;5076645;28;20052;-59
2023/05/19 03:22:01;;;;;;;3.22;1.75;;;;;;;21.29;57.90;101254.00;5076545;28;20051;-59
2023/05/19 03:24:29;;;;;;;3.42;1.90;;;;;;;21.29;57.92;101254.84;5075523;28;20053;-59
2023/05/19 03:26:56;;;;;;;2.25;1.27;;;;;;;21.28;58.04;101245.06;5075414;28;20052;-52
2023/05/19 03:29:24;;;;;;;2.83;1.48;;;;;;;21.29;57.88;101248.59;5075419;28;20070;-52
2023/05/19 03:31:52;;;;;;;3.95;1.58;;;;;;;21.29;57.99;101251.28;5075617;28;20074;-51
2023/05/19 03:34:21;;;;;;;4.13;1.95;;;;;;;21.29;57.91;101256.69;5075167;28;20052;-52
2023/05/19 03:36:49;;;;;;;2.78;1.45;;;;;;;21.28;58.03;101246.91;5075249;28;20048;-51
2023/05/19 03:39:16;;;;;;;2.50;1.27;;;;;;;21.29;58.03;101244.06;5075324;28;20056;-50
2023/05/19 03:41:47;;;;;;;3.22;1.50;;;;;;;21.29;58.14;101262.06;5075107;28;20055;-51
2023/05/19 03:44:14;;;;;;;2.15;1.20;;;;;;;21.29;58.24;101256.69;5076200;28;20059;-50
2023/05/19 03:46:42;;;;;;;1.95;1.27;;;;;;;21.29;58.15;101262.06;5075054;28;20566;-52
2023/05/19 03:49:16;;;;;;;2.88;1.55;;;;;;;21.29;58.21;101256.69;5082976;28;20041;-51
2023/05/19 03:52:03;;;;;;;3.13;1.50;;;;;;;21.29;58.22;101264.75;5074886;28;20060;-60
2023/05/19 03:54:50;;;;;;;2.83;1.40;;;;;;;21.28;58.30;101265.75;5074977;28;20053;-59
2023/05/19 03:57:19;;;;;;;2.92;1.48;;;;;;;21.29;58.25;101267.47;5075911;28;20048;-59
2023/05/19 03:59:47;;;;;;;2.58;1.75;;;;;;;21.28;58.24;101261.22;5074322;28;20064;-53
2023/05/19 04:02:14;;;;;;;2.53;1.55;;;;;;;21.28;58.36;101273.84;5074654;28;20048;-53
2023/05/19 04:04:42;;;;;;;3.25;1.73;;;;;;;21.28;58.43;101263.91;5075021;28;20048;-54
2023/05/19 04:07:10;;;;;;;3.08;1.83;;;;;;;21.27;58.24;101272.09;5075770;28;20059;-53
2023/05/19 04:09:40;;;;;;;2.10;1.35;;;;;;;21.28;58.53;101268.44;5075525;28;20048;-52
2023/05/19 04:12:11;;;;;;;2.88;1.92;;;;;;;21.27;58.32;101274.78;5075674;28;20052;-59
2023/05/19 04:14:38;;;;;;;2.60;1.27;;;;;;;21.28;58.21;101279.22;5075689;28;20052;-59
2023/05/19 04:17:06;;;;;;;3.38;1.55;;;;;;;21.27;58.34;101277.50;5075811;28;20057;-59
2023/05/19 04:19:34;;;;;;;2.78;1.75;;;;;;;21.27;58.27;101283.75;5074236;28;20052;-59
2023/05/19 04:22:01;;;;;;;2.50;1.60;;;;;;;21.26;58.33;101279.34;5074447;28;20507;-59
2023/05/19 04:24:29;;;;;;;2.63;1.45;;;;;;;21.26;58.27;101271.25;5074359;28;20389;-59
2023/05/19 04:27:01;;;;;;;3.58;1.55;;;;;;;21.26;58.27;101286.56;5074092;28;20053;-59
2023/05/19 04:29:28;;;;;;;4.88;2.55;;;;;;;21.25;58.33;101274.94;5074657;28;20049;-59
2023/05/19 04:31:56;;;;;;;3.58;1.52;;;;;;;21.26;58.37;101281.19;5075424;28;20060;-59
2023/05/19 04:34:23;;;;;;;3.08;1.60;;;;;;;21.26;58.37;101289.25;5074148;28;20381;-59
2023/05/19 04:36:51;;;;;;;3.13;1.70;;;;;;;21.26;58.37;101281.19;5074107;28;20052;-59
2023/05/19 04:39:21;;;;;;;3.25;1.48;;;;;;;21.26;58.37;101291.94;5073454;28;20052;-59
2023/05/19 04:41:49;;;;;;;3.40;1.35;;;;;;;21.26;58.39;101289.25;5057763;28;20049;-53
2023/05/19 04:44:16;;;;;;;3.08;1.70;;;;;;;21.24;58.37;101284.88;5073967;28;20408;-53
2023/05/19 04:46:48;;;;;;;3.05;1.55;;;;;;;21.23;58.44;101285.84;5073985;28;20694;-51
2023/05/19 04:49:18;;;;;;;2.33;1.30;;;;;;;21.24;58.44;101289.41;5074124;28;20487;-53
2023/05/19 04:51:48;;;;;;;3.92;1.70;;;;;;;21.24;58.49;101287.56;5075145;28;20488;-51
2023/05/19 04:54:18;;;;;;;2.75;1.70;;;;;;;21.25;58.41;101291.09;5074604;28;20056;-50
2023/05/19 04:56:45;;;;;;;3.25;1.58;;;;;;;21.24;58.48;101295.63;5073349;28;20048;-52
2023/05/19 04:59:13;;;;;;;3.75;1.63;;;;;;;21.24;58.51;101289.41;5073421;28;20770;-51
2023/05/19 05:01:41;;;;;;;3.60;1.98;;;;;;;21.24;58.49;101295.63;5073999;28;20048;-59
2023/05/19 05:04:12;;;;;;;2.33;1.42;;;;;;;21.23;58.54;101299.31;5073407;28;20397;-52
2023/05/19 05:06:41;;;;;;;3.70;1.70;;;;;;;21.24;58.45;101305.56;5073349;28;20059;-54
2023/05/19 05:09:09;;;;;;;2.67;1.63;;;;;;;21.24;58.48;101294.78;5073139;28;20060;-53
2023/05/19 05:11:36;;;;;;;2.92;1.92;;;;;;;21.24;58.55;101301.03;5074129;28;20044;-53
2023/05/19 05:14:04;;;;;;;3.33;1.67;;;;;;;21.23;58.59;101304.72;5072989;28;20067;-53
2023/05/19 05:16:33;;;;;;;3.60;1.90;;;;;;;21.24;58.44;101306.41;5073302;28;20056;-53
2023/05/19 05:19:01;;;;;;;2.42;1.33;;;;;;;21.24;58.62;101300.16;5073246;28;20519;-52
2023/05/19 05:21:30;;;;;;;2.85;1.73;;;;;;;21.24;58.59;101306.41;5073136;28;20052;-50
2023/05/19 05:23:58;;;;;;;4.28;1.90;;;;;;;21.24;58.52;101310.94;5073162;28;20495;-53
2023/05/19 05:26:32;;;;;;;3.65;1.88;;;;;;;21.23;58.62;101310.09;5073175;28;20118;-51
2023/05/19 05:29:01;;;;;;;3.08;2.03;;;;;;;21.24;58.70;101317.19;5073111;28;20055;-51
2023/05/19 05:31:29;;;;;;;3.42;2.28;;;;;;;21.24;58.42;101310.94;5056971;28;20056;-53
2023/05/19 05:33:58;;;;;;;3.70;1.92;;;;;;;21.24;58.66;101309.09;5072760;28;20056;-54
2023/05/19 05:36:30;;;;;;;2.63;1.55;;;;;;;21.24;58.58;101309.09;5072726;28;20060;-52
2023/05/19 05:39:01;;;;;;;2.55;1.70;;;;;;;21.23;58.50;101310.09;5072228;28;20075;-59
2023/05/19 05:41:33;;;;;;;2.70;1.73;;;;;;;21.22;58.58;101308.38;5072936;28;20049;-51
2023/05/19 05:44:05;;;;;;;3.67;1.80;;;;;;;21.24;58.56;101313.63;5072908;28;20412;-52
2023/05/19 05:46:33;;;;;;;2.83;1.90;;;;;;;21.23;58.51;101312.78;5072716;28;20055;-53
2023/05/19 05:49:01;;;;;;;3.75;1.85;;;;;;;21.24;58.69;101316.34;5074236;28;20127;-52
2023/05/19 05:51:31;;;;;;;2.80;1.70;;;;;;;21.22;58.52;101316.44;5072759;28;20056;-59
2023/05/19 05:54:01;;;;;;;2.65;1.50;;;;;;;21.22;58.57;101313.75;5072692;28;20048;-59
2023/05/19 05:56:36;;;;;;;3.67;2.22;;;;;;;21.22;58.60;101316.44;5072269;28;20051;-59
2023/05/19 05:59:06;;;;;;;3.47;1.95;;;;;;;21.23;58.50;101320.00;5072704;28;20063;-59
2023/05/19 06:01:35;;;;;;;2.75;1.85;;;;;;;21.23;58.56;101322.72;5072918;28;20052;-59
2023/05/19 06:04:04;;;;;;;2.88;1.83;;;;;;;21.22;58.62;101321.81;5073020;28;20056;-59
2023/05/19 06:06:32;;;;;;;2.95;1.90;;;;;;;21.22;58.71;101320.97;5072047;28;20048;-59
2023/05/19 06:09:01;;;;;;;3.22;1.98;;;;;;;21.22;58.46;101315.59;5072468;28;20048;-59
2023/05/19 06:11:29;;;;;;;3.47;1.45;;;;;;;21.23;58.62;101322.72;5072164;28;20052;-59
2023/05/19 06:13:58;;;;;;;2.30;1.60;;;;;;;21.23;58.75;101330.78;5072330;28;20056;-59
2023/05/19 06:16:52;;;;;;;3.92;2.05;;;;;;;21.22;58.67;101327.22;5072329;28;20485;-59
2023/05/19 06:19:20;;;;;;;3.50;1.98;;;;;;;21.23;58.58;101330.78;5072245;28;20060;-59
2023/05/19 06:21:48;;;;;;;3.53;2.17;;;;;;;21.23;58.70;101336.19;5072417;28;20126;-59
2023/05/19 06:24:15;;;;;;;4.30;2.25;;;;;;;21.24;58.79;101329.78;5072320;28;20056;-59
2023/05/19 06:26:43;;;;;;;3.45;2.05;;;;;;;21.22;58.76;101331.75;5073286;28;20044;-59
2023/05/19 06:29:10;;;;;;;3.38;1.98;;;;;;;21.22;58.79;101334.44;5072257;28;20154;-59
2023/05/19 06:31:37;;;;;;;3.20;1.83;;;;;;;21.22;58.75;101329.91;5072350;28;20423;-59
2023/05/19 06:34:11;;;;;;;3.22;1.90;;;;;;;21.23;58.76;101337.03;5072156;28;20504;-59
2023/05/19 06:36:40;;;;;;;2.50;1.70;;;;;;;21.23;58.88;101338.88;5073131;28;20059;-59
2023/05/19 06:39:08;;;;;;;2.60;1.95;;;;;;;21.24;58.81;101337.88;5072177;28;20044;-59
2023/05/19 06:41:36;;;;;;;2.97;2.03;;;;;;;21.24;58.95;101337.88;5071893;28;20056;-50
2023/05/19 06:44:05;;;;;;;2.40;1.55;;;;;;;21.24;59.00;101341.41;5072156;28;20052;-50
2023/05/19 06:46:33;;;;;;;3.10;1.85;;;;;;;21.24;58.89;101344.09;5072077;28;20561;-53
2023/05/19 06:49:00;;;;;;;4.50;1.67;;;;;;;21.24;59.03;101338.72;5071863;28;20045;-53
2023/05/19 06:51:32;;;;;;;3.92;1.90;;;;;;;21.24;59.09;101329.78;5059033;28;20496;-59
2023/05/19 06:53:59;;;;;;;3.00;1.65;;;;;;;21.25;59.08;101328.81;5076112;28;20052;-59
2023/05/19 06:56:27;;;;;;;3.08;1.50;;;;;;;21.26;59.02;101343.97;5075841;28;20059;-59
2023/05/19 06:58:55;;;;;;;3.40;1.60;;;;;;;21.27;59.01;101334.03;5077216;28;20067;-58
2023/05/19 07:01:29;;;;;;;2.80;1.80;;;;;;;21.29;59.07;101340.16;5075994;28;20053;-58
2023/05/19 07:03:58;;;;;;;3.70;2.20;;;;;;;21.28;59.13;101333.94;5075879;28;20052;-58
2023/05/19 07:06:26;;;;;;;4.90;2.25;;;;;;;21.28;58.99;101336.63;5075855;28;20049;-58
2023/05/19 07:08:53;;;;;;;3.70;2.22;;;;;;;21.28;58.73;101344.69;5075587;28;20369;-58
2023/05/19 07:11:21;;;;;;;4.75;2.63;;;;;;;21.26;58.57;101341.28;5076432;28;20121;-49
2023/05/19 07:13:48;;;;;;;4.30;2.20;;;;;;;21.28;58.65;101343.84;5084723;28;20043;-49
2023/05/19 07:16:22;;;;;;;4.57;2.00;;;;;;;21.26;58.44;101335.03;5095626;28;20059;-49
2023/05/19 07:18:49;;;;;;;5.28;2.55;;;;;;;21.25;58.12;101342.25;5095000;28;20048;-58
2023/05/19 07:21:17;;;;;;;3.75;2.45;;;;;;;21.26;57.81;101340.41;5096682;28;20484;-59
2023/05/19 07:23:45;;;;;;;6.18;2.83;;;;;;;21.24;57.63;101343.25;5075482;28;20048;-58
2023/05/19 07:26:13;;;;;;;4.25;2.53;;;;;;;21.23;57.52;101342.41;5074828;28;20451;-59
2023/05/19 07:28:42;;;;;;;4.32;2.58;;;;;;;21.22;57.44;101335.28;5081912;28;20043;-58
2023/05/19 07:31:09;;;;;;;4.68;2.33;;;;;;;21.21;57.43;101338.97;5096615;28;20063;-59
2023/05/19 07:33:36;;;;;;;4.70;2.45;;;;;;;21.20;57.30;101339.97;5095805;28;20078;-58
2023/05/19 07:36:04;;;;;;;3.45;2.45;;;;;;;21.19;57.18;101338.28;5095721;28;20051;-59
2023/05/19 07:38:35;;;;;;;3.80;2.50;;;;;;;21.17;57.20;101332.16;5096127;28;20379;-58
2023/05/19 07:41:02;;;;;;;3.83;2.70;;;;;;;21.19;57.10;101337.44;5096331;28;20365;-49
2023/05/19 07:43:30;;;;;;;5.47;2.83;;;;;;;21.17;57.07;101337.53;5096148;28;20044;-49
2023/05/19 07:45:57;;;;;;;4.07;2.85;;;;;;;21.16;57.14;101338.53;5095878;28;20040;-50
2023/05/19 07:48:25;;;;;;;3.50;2.55;;;;;;;21.17;57.32;101334.84;5095775;28;20040;-51
2023/05/19 07:50:52;;;;;;;3.75;2.58;;;;;;;21.16;57.29;101335.84;5096348;28;20059;-50
2023/05/19 07:53:21;;;;;;;5.15;2.90;;;;;;;21.18;57.30;101344.63;5096048;28;20492;-49
2023/05/19 07:55:49;;;;;;;4.63;3.10;;;;;;;21.17;57.35;101340.22;5096004;28;20044;-51
2023/05/19 07:58:16;;;;;;;6.70;3.30;;;;;;;21.17;57.12;101342.06;5095912;28;20044;-49
2023/05/19 08:00:44;;;;;;;6.78;3.55;;;;;;;21.16;57.25;101341.22;5095999;28;20040;-58
2023/05/19 08:03:12;;;;;;;5.78;3.83;;;;;;;21.15;57.11;101334.13;5095107;28;20047;-58
2023/05/19 08:05:40;;;;;;;5.22;3.75;;;;;;;21.15;57.09;101339.53;5095678;28;20048;-59
2023/05/19 08:08:07;;;;;;;4.72;3.55;;;;;;;21.15;57.15;101339.53;5095662;28;20044;-59
2023/05/19 08:10:35;;;;;;;7.05;4.15;;;;;;;21.15;57.22;101333.28;5095602;28;20051;-49
2023/05/19 08:13:02;;;;;;;5.40;3.83;;;;;;;21.13;57.12;101336.09;5095735;28;20040;-49
2023/05/19 08:15:29;;;;;;;5.55;3.63;;;;;;;21.12;57.00;101337.09;5094526;28;20400;-50
2023/05/19 08:17:57;;;;;;;6.97;4.22;;;;;;;21.11;56.99;101342.63;5095110;28;20043;-48
2023/05/19 08:20:24;;;;;;;5.30;3.50;;;;;;;21.10;56.92;101341.72;5095393;28;20055;-50
2023/05/19 08:22:52;;;;;;;5.60;3.80;;;;;;;21.09;57.18;101344.56;5095208;28;20044;-50
2023/05/19 08:25:19;;;;;;;6.07;4.50;;;;;;;21.07;56.99;101344.72;5095401;28;20040;-48
2023/05/19 08:27:46;;;;;;;6.38;4.85;;;;;;;21.06;57.17;101345.66;5095129;28;20048;-51
2023/05/19 08:30:14;;;;;;;5.85;4.07;;;;;;;21.06;57.26;101342.13;5095027;28;20055;-59
2023/05/19 08:32:41;;;;;;;5.57;4.53;;;;;;;21.06;57.17;101344.81;5094819;28;20447;-58
2023/05/19 08:35:09;;;;;;;6.25;4.57;;;;;;;21.04;57.11;101342.28;5095332;28;20054;-58
2023/05/19 08:37:37;;;;;;;6.43;4.90;;;;;;;21.04;57.11;101352.19;5095005;28;20059;-59
2023/05/19 08:40:07;;;;;;;5.40;3.85;;;;;;;21.03;57.08;101351.34;5095151;28;20044;-58
2023/05/19 08:42:35;;;;;;;7.22;4.45;;;;;;;21.03;57.24;101350.50;5095077;28;20054;-58
2023/05/19 08:45:02;;;;;;;5.45;4.60;;;;;;;21.03;57.34;101350.50;5094947;28;20384;-58
2023/05/19 08:47:31;;;;;;;5.70;4.53;;;;;;;21.03;57.30;101353.19;5093741;28;20044;-58
2023/05/19 08:50:09;;;;;;;6.47;4.72;;;;;;;21.01;57.47;101350.59;5095008;28;20380;-58
2023/05/19 08:52:51;;;;;;;5.25;4.65;;;;;;;21.02;57.50;101354.13;5094827;28;20051;-59
2023/05/19 08:55:32;;;;;;;5.07;3.40;;;;;;;21.02;57.50;101354.13;5094617;28;20403;-59
2023/05/19 08:58:02;;;;;;;5.35;4.13;;;;;;;21.05;57.60;101352.03;5094238;28;20491;-59
2023/05/19 09:00:31;;;;;;;4.72;3.67;;;;;;;21.05;57.57;101351.19;5094634;28;20372;-59
2023/05/19 09:03:00;;;;;;;5.30;3.95;;;;;;;21.06;57.58;101352.91;5094579;28;20051;-59
2023/05/19 09:05:32;;;;;;;;;;;;;;;21.05;57.61;101348.50;5095159;28;20050;-58
2023/05/19 09:08:01;;;;;;;6.18;3.53;;;;;;;21.07;57.53;101350.09;5094420;28;19920;-49
2023/05/19 09:10:29;;;;;;;6.45;4.95;;;;;;;21.05;57.63;101352.03;5094638;28;20059;-58
2023/05/19 09:12:56;;;;;;;5.38;4.47;;;;;;;21.04;57.79;101360.25;5094392;28;20055;-58
2023/05/19 09:15:27;;;;;;;6.18;4.85;;;;;;;21.04;57.95;101354.88;5092695;28;20126;-58
2023/05/19 09:18:08;;;;;;;6.95;4.57;;;;;;;21.01;57.70;101353.28;5094390;28;20044;-58
2023/05/19 09:20:40;;;;;;;6.40;4.28;;;;;;;21.00;57.86;101346.22;5094613;28;20464;-58
2023/05/19 09:23:14;;;;;;;6.38;4.22;;;;;;;20.99;57.97;101344.50;5094225;28;20044;-58
2023/05/19 09:25:50;;;;;;;5.13;4.05;;;;;;;20.99;57.98;101344.50;5094383;28;20043;-58
2023/05/19 09:28:29;;;;;;;5.93;4.47;;;;;;;20.98;58.12;101346.34;5094184;28;20495;-59
2023/05/19 09:31:00;;;;;;;4.57;3.53;;;;;;;20.98;57.89;101343.66;5094104;28;20048;-53
2023/05/19 09:33:28;;;;;;;4.97;3.15;;;;;;;20.99;58.04;101339.13;5093904;28;20059;-53
2023/05/19 09:35:56;;;;;;;5.43;4.10;;;;;;;20.98;58.04;101338.28;5094529;28;20511;-53
2023/05/19 09:38:24;;;;;;;6.18;4.38;;;;;;;20.96;58.12;101329.47;5094021;28;20044;-50
2023/05/19 09:40:57;;;;;;;5.30;3.60;;;;;;;20.96;58.41;101336.69;5094078;28;20047;-53
2023/05/19 09:43:32;;;;;;;4.72;3.70;;;;;;;20.95;58.42;101333.13;5093964;28;20047;-49
2023/05/19 09:46:03;;;;;;;4.55;3.67;;;;;;;20.96;58.33;101334.00;5094233;28;20059;-58
2023/05/19 09:48:31;;;;;;;4.32;3.30;;;;;;;20.95;58.45;101337.69;5094027;28;20044;-58
2023/05/19 09:51:00;;;;;;;4.35;3.50;;;;;;;20.94;58.56;101333.25;5094098;28;20051;-59
2023/05/19 09:53:29;;;;;;;6.65;4.25;;;;;;;20.94;58.66;101330.56;5093611;28;20046;-58
2023/05/19 09:55:57;;;;;;;4.45;3.80;;;;;;;20.93;58.80;101337.78;5094094;28;20047;-58
2023/05/19 09:58:25;;;;;;;4.80;3.75;;;;;;;20.93;58.60;101334.25;5093659;28;20411;-58
2023/05/19 10:00:54;;;;;;;4.40;3.35;;;;;;;20.94;58.82;101338.63;5093890;28;20047;-58
2023/05/19 10:03:22;;;;;;;4.60;3.50;;;;;;;20.92;58.62;101333.41;5093791;28;20487;-58
2023/05/19 10:05:52;;;;;;;4.75;3.05;;;;;;;20.93;58.69;101335.09;5093809;28;20048;-58
2023/05/19 10:08:22;;;;;;;4.10;3.15;;;;;;;20.93;58.69;101334.25;5093352;28;20427;-59
2023/05/19 10:10:51;;;;;;;3.92;3.05;;;;;;;20.91;58.69;101329.00;5093262;28;20044;-58
2023/05/19 10:13:20;;;;;;;4.85;3.08;;;;;;;20.91;58.76;101336.22;5093448;28;20052;-58
2023/05/19 10:15:49;;;;;;;5.78;2.97;;;;;;;20.91;58.77;101329.00;5093484;28;20044;-58
2023/05/19 10:18:26;;;;;;;5.00;3.35;;;;;;;20.89;58.94;101328.25;5093331;28;20395;-58
2023/05/19 10:20:56;;;;;;;4.13;3.10;;;;;;;20.91;58.84;101325.47;5093478;28;20049;-50
2023/05/19 10:23:25;;;;;;;5.35;3.15;;;;;;;20.90;58.80;101323.72;5093310;28;20055;-52
2023/05/19 10:25:57;;;;;;;4.15;2.83;;;;;;;20.88;59.00;101318.50;5092924;28;20044;-54
2023/05/19 10:28:33;;;;;;;3.95;2.88;;;;;;;20.88;59.07;101320.34;5093170;28;20040;-53
2023/05/19 10:31:04;;;;;;;4.15;2.65;;;;;;;20.89;59.10;101328.25;5093185;28;20519;-58
2023/05/19 10:34:01;;;;;;;4.68;2.92;;;;;;;20.89;59.08;101319.34;5092975;28;20052;-58
2023/05/19 10:36:46;;;;;;;6.00;3.20;;;;;;;20.89;59.13;101327.41;5092098;28;20439;-59
2023/05/19 10:39:26;;;;;;;3.88;2.78;;;;;;;20.87;59.19;101324.03;5093031;28;20044;-58
2023/05/19 10:42:11;;;;;;;4.50;3.40;;;;;;;20.87;59.37;101321.31;5093350;28;20048;-51
2023/05/19 10:44:56;;;;;;;4.88;2.25;;;;;;;20.87;59.36;101322.19;5093324;28;20051;-50
2023/05/19 10:47:24;;;;;;;3.55;2.50;;;;;;;20.88;59.23;101320.34;5093229;28;20044;-51
2023/05/19 10:49:53;;;;;;;3.70;2.22;;;;;;;20.89;59.13;101322.03;5093393;28;20051;-51
2023/05/19 10:52:24;;;;;;;5.78;2.70;;;;;;;20.89;59.10;101316.66;5093124;28;20067;-50
2023/05/19 10:54:53;;;;;;;3.38;2.60;;;;;;;20.89;59.14;101324.72;5093017;28;20036;-52
2023/05/19 10:57:26;;;;;;;3.45;2.40;;;;;;;20.89;59.11;101317.50;5091250;28;20044;-50
2023/05/19 10:59:59;;;;;;;4.75;2.60;;;;;;;20.89;58.99;101319.34;5092903;28;20472;-51
2023/05/19 11:02:39;;;;;;;3.55;2.50;;;;;;;20.89;58.92;101316.66;5092814;28;20048;-58
2023/05/19 11:05:08;;;;;;;3.60;2.42;;;;;;;20.89;58.96;101316.66;5092975;28;20400;-58
2023/05/19 11:07:35;;;;;;;3.55;2.13;;;;;;;20.89;59.22;101324.72;5092592;28;20392;-58
2023/05/19 11:10:06;;;;;;;3.95;2.13;;;;;;;20.89;59.26;101319.34;5092728;28;20044;-58
2023/05/19 11:12:42;;;;;;;3.00;2.10;;;;;;;20.89;59.43;101325.56;5092435;28;20051;-58
2023/05/19 11:15:15;;;;;;;3.65;2.55;;;;;;;20.89;59.38;101324.72;5092735;28;20048;-59
2023/05/19 11:17:47;;;;;;;4.32;2.45;;;;;;;20.88;59.50;101321.19;5092489;28;20051;-58
2023/05/19 11:20:24;;;;;;;3.42;2.13;;;;;;;20.88;59.47;101320.34;5092908;28;20055;-51
2023/05/19 11:23:04;;;;;;;3.03;2.00;;;;;;;20.88;59.63;101317.63;5092054;28;20044;-50
2023/05/19 11:25:53;;;;;;;3.50;2.08;;;;;;;20.86;59.65;101314.22;5092242;28;20043;-50
2023/05/19 11:28:26;;;;;;;3.15;1.88;;;;;;;20.87;59.67;101318.63;5092461;28;20384;-53
2023/05/19 11:30:56;;;;;;;3.38;1.98;;;;;;;20.86;59.94;101317.75;5092620;28;20048;-52
2023/05/19 11:33:26;;;;;;;2.95;1.77;;;;;;;20.86;59.96;101316.91;5090986;28;20056;-52
2023/05/19 11:35:57;;;;;;;5.28;2.05;;;;;;;20.86;60.23;101316.91;5092579;28;20051;-51
2023/05/19 11:38:26;;;;;;;4.55;2.28;;;;;;;20.86;60.19;101311.53;5094507;28;20040;-50
2023/05/19 11:40:55;;;;;;;4.45;2.20;;;;;;;20.86;60.42;101319.59;5095872;28;20423;-50
2023/05/19 11:43:23;;;;;;;3.70;2.08;;;;;;;20.85;60.39;101309.81;5096036;28;20466;-53
2023/05/19 11:45:52;;;;;;;3.90;2.03;;;;;;;20.86;60.48;101314.22;5095872;28;20048;-52